sensor_id;sensor_type;location;lat;lon;timestamp;pressure;altitude;pressure_sealevel;temperature;humidity
11487;BME280;10510;47.942;9.442;2022-07-30T00:01:17;94751.47;;;15.03;100.00
11487;BME280;10510;47.942;9.442;2022-07-30T00:03:17;94750.22;;;15.06;100.00
11487;BME280;10510;47.942;9.442;2022-07-30T00:05:18;94760.53;;;15.07;100.00
11487;BME280;10510;47.942;9.442;2022-07-30T00:07:18;94752.66;;;15.07;100.00
11487;BME280;10510;47.942;9.442;2022-07-30T00:09:18;94759.50;;;15.08;100.00
11487;BME280;10510;47.942;9.442;2022-07-30T00:11:19;94746.34;;;15.08;100.00
11487;BME280;10510;47.942;9.442;2022-07-30T00:13:21;94757.69;;;15.09;100.00
11487;BME280;10510;47.942;9.442;2022-07-30T00:15:21;94755.06;;;15.09;100.00
11487;BME280;10510;47.942;9.442;2022-07-30T00:17:22;94752.41;;;15.09;100.00
11487;BME280;10510;47.942;9.442;2022-07-30T00:19:22;94758.53;;;15.09;100.00
11487;BME280;10510;47.942;9.442;2022-07-30T00:21:22;94755.06;;;15.09;100.00
11487;BME280;10510;47.942;9.442;2022-07-30T00:23:23;94751.63;;;15.08;100.00
11487;BME280;10510;47.942;9.442;2022-07-30T00:25:23;94753.44;;;15.08;100.00
11487;BME280;10510;47.942;9.442;2022-07-30T00:27:24;94758.72;;;15.08;100.00
11487;BME280;10510;47.942;9.442;2022-07-30T00:29:24;94754.47;;;15.07;100.00
11487;BME280;10510;47.942;9.442;2022-07-30T00:31:25;94763.16;;;15.07;100.00
11487;BME280;10510;47.942;9.442;2022-07-30T00:33:25;94754.47;;;15.07;100.00
11487;BME280;10510;47.942;9.442;2022-07-30T00:35:26;94762.16;;;15.08;100.00
11487;BME280;10510;47.942;9.442;2022-07-30T00:37:26;94766.59;;;15.08;100.00
11487;BME280;10510;47.942;9.442;2022-07-30T00:39:27;94769.25;;;15.08;100.00
11487;BME280;10510;47.942;9.442;2022-07-30T00:41:28;94767.41;;;15.08;100.00
11487;BME280;10510;47.942;9.442;2022-07-30T00:43:29;94765.59;;;15.09;100.00
11487;BME280;10510;47.942;9.442;2022-07-30T00:45:29;94761.34;;;15.08;100.00
11487;BME280;10510;47.942;9.442;2022-07-30T00:47:29;94758.72;;;15.08;100.00
11487;BME280;10510;47.942;9.442;2022-07-30T00:49:29;94765.00;;;15.07;100.00
11487;BME280;10510;47.942;9.442;2022-07-30T00:51:30;94757.09;;;15.07;100.00
11487;BME280;10510;47.942;9.442;2022-07-30T00:53:31;94762.56;;;15.05;100.00
11487;BME280;10510;47.942;9.442;2022-07-30T00:55:32;94766.00;;;15.06;100.00
11487;BME280;10510;47.942;9.442;2022-07-30T00:57:33;94765.81;;;15.07;100.00
11487;BME280;10510;47.942;9.442;2022-07-30T00:59:33;94767.81;;;15.05;100.00
11487;BME280;10510;47.942;9.442;2022-07-30T01:01:34;94770.47;;;15.05;100.00
11487;BME280;10510;47.942;9.442;2022-07-30T01:03:36;94772.09;;;15.06;100.00
11487;BME280;10510;47.942;9.442;2022-07-30T01:05:36;94770.47;;;15.05;100.00
11487;BME280;10510;47.942;9.442;2022-07-30T01:07:37;94767.63;;;15.07;100.00
11487;BME280;10510;47.942;9.442;2022-07-30T01:09:38;94773.47;;;15.09;100.00
11487;BME280;10510;47.942;9.442;2022-07-30T01:11:40;94770.84;;;15.09;100.00
11487;BME280;10510;47.942;9.442;2022-07-30T01:13:42;94772.47;;;15.10;100.00
11487;BME280;10510;47.942;9.442;2022-07-30T01:15:42;94768.63;;;15.12;100.00
11487;BME280;10510;47.942;9.442;2022-07-30T01:17:45;94771.03;;;15.14;100.00
11487;BME280;10510;47.942;9.442;2022-07-30T01:19:47;94767.19;;;15.16;100.00
11487;BME280;10510;47.942;9.442;2022-07-30T01:22:13;94773.63;;;15.20;100.00
11487;BME280;10510;47.942;9.442;2022-07-30T01:24:34;94779.50;;;15.22;100.00
11487;BME280;10510;47.942;9.442;2022-07-30T01:26:35;94771.41;;;15.24;100.00
11487;BME280;10510;47.942;9.442;2022-07-30T01:28:42;94774.22;;;15.29;100.00
11487;BME280;10510;47.942;9.442;2022-07-30T01:30:44;94777.84;;;15.35;100.00
11487;BME280;10510;47.942;9.442;2022-07-30T01:32:45;94768.72;;;15.37;100.00
11487;BME280;10510;47.942;9.442;2022-07-30T01:34:47;94777.22;;;15.39;100.00
11487;BME280;10510;47.942;9.442;2022-07-30T01:36:49;94775.19;;;15.41;100.00
11487;BME280;10510;47.942;9.442;2022-07-30T01:38:50;94773.38;;;15.42;100.00
11487;BME280;10510;47.942;9.442;2022-07-30T01:40:52;94769.50;;;15.44;100.00
11487;BME280;10510;47.942;9.442;2022-07-30T01:42:53;94767.47;;;15.47;100.00
11487;BME280;10510;47.942;9.442;2022-07-30T01:44:55;94768.06;;;15.49;100.00
11487;BME280;10510;47.942;9.442;2022-07-30T01:46:56;94761.75;;;15.50;100.00
11487;BME280;10510;47.942;9.442;2022-07-30T01:48:57;94767.63;;;15.52;100.00
11487;BME280;10510;47.942;9.442;2022-07-30T01:51:02;94771.69;;;15.54;100.00
11487;BME280;10510;47.942;9.442;2022-07-30T01:53:04;94772.28;;;15.56;100.00
11487;BME280;10510;47.942;9.442;2022-07-30T01:55:07;94766.78;;;15.58;100.00
11487;BME280;10510;47.942;9.442;2022-07-30T01:57:09;94763.16;;;15.59;100.00
11487;BME280;10510;47.942;9.442;2022-07-30T01:59:11;94767.41;;;15.60;100.00
11487;BME280;10510;47.942;9.442;2022-07-30T02:01:12;94771.63;;;15.61;100.00
11487;BME280;10510;47.942;9.442;2022-07-30T02:03:13;94773.28;;;15.62;100.00
11487;BME280;10510;47.942;9.442;2022-07-30T02:05:13;94771.44;;;15.62;100.00
11487;BME280;10510;47.942;9.442;2022-07-30T02:07:48;94771.22;;;15.64;100.00
11487;BME280;10510;47.942;9.442;2022-07-30T02:09:54;94773.84;;;15.64;100.00
11487;BME280;10510;47.942;9.442;2022-07-30T02:11:57;94766.75;;;15.64;100.00
11487;BME280;10510;47.942;9.442;2022-07-30T02:14:18;94769.38;;;15.64;100.00
11487;BME280;10510;47.942;9.442;2022-07-30T02:16:26;94775.50;;;15.65;100.00
11487;BME280;10510;47.942;9.442;2022-07-30T02:18:39;94783.41;;;15.65;100.00
11487;BME280;10510;47.942;9.442;2022-07-30T02:20:50;94783.41;;;15.65;100.00
11487;BME280;10510;47.942;9.442;2022-07-30T02:22:54;94778.13;;;15.65;100.00
11487;BME280;10510;47.942;9.442;2022-07-30T02:24:58;94770.22;;;15.65;100.00
11487;BME280;10510;47.942;9.442;2022-07-30T02:27:11;94776.50;;;15.64;100.00
11487;BME280;10510;47.942;9.442;2022-07-30T02:29:15;94773.84;;;15.64;100.00
11487;BME280;10510;47.942;9.442;2022-07-30T02:31:21;94772.84;;;15.65;100.00
11487;BME280;10510;47.942;9.442;2022-07-30T02:33:25;94771.22;;;15.64;100.00
11487;BME280;10510;47.942;9.442;2022-07-30T02:35:28;94774.88;;;15.63;100.00
11487;BME280;10510;47.942;9.442;2022-07-30T02:37:29;94771.22;;;15.64;100.00
11487;BME280;10510;47.942;9.442;2022-07-30T02:39:32;94777.50;;;15.63;100.00
11487;BME280;10510;47.942;9.442;2022-07-30T02:41:34;94778.31;;;15.63;100.00
11487;BME280;10510;47.942;9.442;2022-07-30T02:43:38;94774.28;;;15.61;100.00
11487;BME280;10510;47.942;9.442;2022-07-30T02:45:40;94777.94;;;15.60;100.00
11487;BME280;10510;47.942;9.442;2022-07-30T02:47:41;94773.47;;;15.60;100.00
11487;BME280;10510;47.942;9.442;2022-07-30T02:49:43;94778.97;;;15.59;100.00
11487;BME280;10510;47.942;9.442;2022-07-30T02:51:48;94776.53;;;15.57;100.00
11487;BME280;10510;47.942;9.442;2022-07-30T02:53:51;94773.09;;;15.57;100.00
11487;BME280;10510;47.942;9.442;2022-07-30T02:55:54;94783.03;;;15.55;100.00
11487;BME280;10510;47.942;9.442;2022-07-30T02:57:56;94781.41;;;15.54;100.00
11487;BME280;10510;47.942;9.442;2022-07-30T02:59:58;94781.84;;;15.51;100.00
11487;BME280;10510;47.942;9.442;2022-07-30T03:01:59;94781.84;;;15.51;100.00
11487;BME280;10510;47.942;9.442;2022-07-30T03:04:00;94781.47;;;15.47;100.00
11487;BME280;10510;47.942;9.442;2022-07-30T03:06:02;94786.13;;;15.45;100.00
11487;BME280;10510;47.942;9.442;2022-07-30T03:08:04;94784.47;;;15.44;100.00
11487;BME280;10510;47.942;9.442;2022-07-30T03:10:05;94787.34;;;15.42;100.00
11487;BME280;10510;47.942;9.442;2022-07-30T03:12:07;94783.91;;;15.42;100.00
11487;BME280;10510;47.942;9.442;2022-07-30T03:14:09;94782.06;;;15.42;100.00
11487;BME280;10510;47.942;9.442;2022-07-30T03:16:11;94782.06;;;15.42;100.00
11487;BME280;10510;47.942;9.442;2022-07-30T03:18:13;94777.59;;;15.43;100.00
11487;BME280;10510;47.942;9.442;2022-07-30T03:20:17;94783.09;;;15.41;100.00
11487;BME280;10510;47.942;9.442;2022-07-30T03:22:20;94782.88;;;15.43;100.00
11487;BME280;10510;47.942;9.442;2022-07-30T03:24:22;94781.03;;;15.43;100.00
11487;BME280;10510;47.942;9.442;2022-07-30T03:26:24;94791.56;;;15.43;100.00
11487;BME280;10510;47.942;9.442;2022-07-30T03:28:26;94788.13;;;15.43;100.00
11487;BME280;10510;47.942;9.442;2022-07-30T03:30:28;94788.13;;;15.43;100.00
11487;BME280;10510;47.942;9.442;2022-07-30T03:32:30;94791.56;;;15.43;100.00
11487;BME280;10510;47.942;9.442;2022-07-30T03:34:32;94789.97;;;15.42;100.00
11487;BME280;10510;47.942;9.442;2022-07-30T03:36:34;94791.00;;;15.41;100.00
11487;BME280;10510;47.942;9.442;2022-07-30T03:38:40;94790.16;;;15.41;100.00
11487;BME280;10510;47.942;9.442;2022-07-30T03:40:42;94786.72;;;15.40;100.00
11487;BME280;10510;47.942;9.442;2022-07-30T03:42:44;94794.63;;;15.40;100.00
11487;BME280;10510;47.942;9.442;2022-07-30T03:44:45;94793.81;;;15.40;100.00
11487;BME280;10510;47.942;9.442;2022-07-30T03:46:47;94797.50;;;15.39;100.00
11487;BME280;10510;47.942;9.442;2022-07-30T03:48:50;94799.50;;;15.37;100.00
11487;BME280;10510;47.942;9.442;2022-07-30T03:50:51;94797.91;;;15.36;100.00
11487;BME280;10510;47.942;9.442;2022-07-30T03:52:53;94796.50;;;15.33;100.00
11487;BME280;10510;47.942;9.442;2022-07-30T03:54:54;94800.13;;;15.32;100.00
11487;BME280;10510;47.942;9.442;2022-07-30T03:56:54;94802.19;;;15.30;100.00
11487;BME280;10510;47.942;9.442;2022-07-30T03:58:54;94809.28;;;15.30;100.00
11487;BME280;10510;47.942;9.442;2022-07-30T04:00:55;94813.13;;;15.27;100.00
11487;BME280;10510;47.942;9.442;2022-07-30T04:02:55;94813.31;;;15.26;100.00
11487;BME280;10510;47.942;9.442;2022-07-30T04:04:55;94816.97;;;15.25;100.00
11487;BME280;10510;47.942;9.442;2022-07-30T04:06:57;94813.53;;;15.24;100.00
11487;BME280;10510;47.942;9.442;2022-07-30T04:08:58;94821.44;;;15.24;100.00
11487;BME280;10510;47.942;9.442;2022-07-30T04:10:58;94816.19;;;15.24;100.00
11487;BME280;10510;47.942;9.442;2022-07-30T04:12:58;94821.63;;;15.22;100.00
11487;BME280;10510;47.942;9.442;2022-07-30T04:14:59;94819.00;;;15.22;100.00
11487;BME280;10510;47.942;9.442;2022-07-30T04:17:03;94820.22;;;15.20;100.00
11487;BME280;10510;47.942;9.442;2022-07-30T04:19:07;94825.47;;;15.20;100.00
11487;BME280;10510;47.942;9.442;2022-07-30T04:21:10;94824.91;;;15.18;100.00
11487;BME280;10510;47.942;9.442;2022-07-30T04:23:13;94833.59;;;15.18;100.00
11487;BME280;10510;47.942;9.442;2022-07-30T04:25:15;94831.16;;;15.17;100.00
11487;BME280;10510;47.942;9.442;2022-07-30T04:27:17;94836.44;;;15.17;100.00
11487;BME280;10510;47.942;9.442;2022-07-30T04:29:18;94835.84;;;15.15;100.00
11487;BME280;10510;47.942;9.442;2022-07-30T04:31:18;94838.47;;;15.15;100.00
11487;BME280;10510;47.942;9.442;2022-07-30T04:33:19;94834.84;;;15.09;100.00
11487;BME280;10510;47.942;9.442;2022-07-30T04:35:27;94842.94;;;15.08;100.00
11487;BME280;10510;47.942;9.442;2022-07-30T04:37:27;94841.31;;;15.07;100.00
11487;BME280;10510;47.942;9.442;2022-07-30T04:39:28;94849.81;;;15.02;100.00
11487;BME280;10510;47.942;9.442;2022-07-30T04:41:28;94846.59;;;15.00;100.00
11487;BME280;10510;47.942;9.442;2022-07-30T04:43:28;94852.06;;;14.98;100.00
11487;BME280;10510;47.942;9.442;2022-07-30T04:45:29;94851.66;;;14.95;100.00
11487;BME280;10510;47.942;9.442;2022-07-30T04:47:29;94857.13;;;14.93;100.00
11487;BME280;10510;47.942;9.442;2022-07-30T04:49:30;94854.91;;;14.90;100.00
11487;BME280;10510;47.942;9.442;2022-07-30T04:51:33;94854.31;;;14.88;100.00
11487;BME280;10510;47.942;9.442;2022-07-30T04:53:34;94862.41;;;14.87;100.00
11487;BME280;10510;47.942;9.442;2022-07-30T04:55:34;94858.34;;;14.84;100.00
11487;BME280;10510;47.942;9.442;2022-07-30T04:57:38;94867.47;;;14.82;100.00
11487;BME280;10510;47.942;9.442;2022-07-30T04:59:39;94858.75;;;14.81;100.00
11487;BME280;10510;47.942;9.442;2022-07-30T05:01:40;94866.66;;;14.81;100.00
11487;BME280;10510;47.942;9.442;2022-07-30T05:03:41;94864.03;;;14.81;100.00
11487;BME280;10510;47.942;9.442;2022-07-30T05:05:43;94875.56;;;14.80;100.00
11487;BME280;10510;47.942;9.442;2022-07-30T05:07:44;94872.94;;;14.80;100.00
11487;BME280;10510;47.942;9.442;2022-07-30T05:09:45;94874.75;;;14.80;100.00
11487;BME280;10510;47.942;9.442;2022-07-30T05:11:53;94877.41;;;14.80;100.00
11487;BME280;10510;47.942;9.442;2022-07-30T05:13:53;94884.25;;;14.81;100.00
11487;BME280;10510;47.942;9.442;2022-07-30T05:15:53;94885.06;;;14.81;100.00
11487;BME280;10510;47.942;9.442;2022-07-30T05:17:54;94876.16;;;14.82;100.00
11487;BME280;10510;47.942;9.442;2022-07-30T05:19:54;94887.28;;;14.84;100.00
11487;BME280;10510;47.942;9.442;2022-07-30T05:21:54;94882.84;;;14.85;100.00
11487;BME280;10510;47.942;9.442;2022-07-30T05:23:55;94879.00;;;14.87;100.00
11487;BME280;10510;47.942;9.442;2022-07-30T05:25:55;94889.09;;;14.90;100.00
11487;BME280;10510;47.942;9.442;2022-07-30T05:27:55;94885.47;;;14.91;100.00
11487;BME280;10510;47.942;9.442;2022-07-30T05:29:57;94886.88;;;14.94;100.00
11487;BME280;10510;47.942;9.442;2022-07-30T05:31:57;94883.84;;;14.97;100.00
11487;BME280;10510;47.942;9.442;2022-07-30T05:33:57;94889.53;;;15.01;100.00
11487;BME280;10510;47.942;9.442;2022-07-30T05:35:57;94884.66;;;15.04;100.00
11487;BME280;10510;47.942;9.442;2022-07-30T05:37:59;94885.03;;;15.08;100.00
11487;BME280;10510;47.942;9.442;2022-07-30T05:40:00;94894.16;;;15.12;100.00
11487;BME280;10510;47.942;9.442;2022-07-30T05:42:00;94898.81;;;15.16;100.00
11487;BME280;10510;47.942;9.442;2022-07-30T05:44:00;94892.94;;;15.21;100.00
11487;BME280;10510;47.942;9.442;2022-07-30T05:46:01;94890.47;;;15.26;100.00
11487;BME280;10510;47.942;9.442;2022-07-30T05:48:01;94880.94;;;15.32;100.00
11487;BME280;10510;47.942;9.442;2022-07-30T05:50:01;94887.22;;;15.37;100.00
11487;BME280;10510;47.942;9.442;2022-07-30T05:52:02;94889.81;;;15.44;100.00
11487;BME280;10510;47.942;9.442;2022-07-30T05:54:02;94894.06;;;15.52;100.00
11487;BME280;10510;47.942;9.442;2022-07-30T05:56:03;94893.22;;;15.58;100.00
11487;BME280;10510;47.942;9.442;2022-07-30T05:58:03;94893.81;;;15.73;100.00
11487;BME280;10510;47.942;9.442;2022-07-30T06:00:05;94893.69;;;16.00;100.00
11487;BME280;10510;47.942;9.442;2022-07-30T06:02:06;94902.47;;;16.25;100.00
11487;BME280;10510;47.942;9.442;2022-07-30T06:04:07;94898.28;;;16.49;100.00
11487;BME280;10510;47.942;9.442;2022-07-30T06:06:07;94904.19;;;16.76;100.00
11487;BME280;10510;47.942;9.442;2022-07-30T06:08:07;94897.09;;;17.02;100.00
11487;BME280;10510;47.942;9.442;2022-07-30T06:10:08;94901.09;;;17.30;100.00
11487;BME280;10510;47.942;9.442;2022-07-30T06:12:08;94906.13;;;17.56;100.00
11487;BME280;10510;47.942;9.442;2022-07-30T06:14:09;94905.63;;;17.84;100.00
11487;BME280;10510;47.942;9.442;2022-07-30T06:16:09;94905.63;;;18.14;100.00
11487;BME280;10510;47.942;9.442;2022-07-30T06:18:09;94911.16;;;18.43;100.00
11487;BME280;10510;47.942;9.442;2022-07-30T06:20:11;94906.84;;;18.60;100.00
11487;BME280;10510;47.942;9.442;2022-07-30T06:22:11;94917.06;;;18.87;100.00
11487;BME280;10510;47.942;9.442;2022-07-30T06:24:12;94916.63;;;19.14;100.00
11487;BME280;10510;47.942;9.442;2022-07-30T06:26:13;94920.53;;;19.46;100.00
11487;BME280;10510;47.942;9.442;2022-07-30T06:28:14;94920.31;;;19.60;100.00
11487;BME280;10510;47.942;9.442;2022-07-30T06:30:14;94916.47;;;19.79;100.00
11487;BME280;10510;47.942;9.442;2022-07-30T06:32:14;94912.16;;;20.02;100.00
11487;BME280;10510;47.942;9.442;2022-07-30T06:34:15;94918.78;;;20.28;100.00
11487;BME280;10510;47.942;9.442;2022-07-30T06:36:24;94915.59;;;20.42;100.00
11487;BME280;10510;47.942;9.442;2022-07-30T06:38:24;94921.22;;;20.58;100.00
11487;BME280;10510;47.942;9.442;2022-07-30T06:40:25;94916.97;;;20.91;100.00
11487;BME280;10510;47.942;9.442;2022-07-30T06:42:25;94923.69;;;21.10;100.00
11487;BME280;10510;47.942;9.442;2022-07-30T06:44:25;94912.31;;;21.31;100.00
11487;BME280;10510;47.942;9.442;2022-07-30T06:46:25;94917.38;;;21.50;100.00
11487;BME280;10510;47.942;9.442;2022-07-30T06:48:26;94918.16;;;21.67;100.00
11487;BME280;10510;47.942;9.442;2022-07-30T06:50:26;94921.56;;;21.85;100.00
11487;BME280;10510;47.942;9.442;2022-07-30T06:52:26;94918.63;;;22.03;100.00
11487;BME280;10510;47.942;9.442;2022-07-30T06:54:27;94919.53;;;22.14;100.00
11487;BME280;10510;47.942;9.442;2022-07-30T06:56:27;94917.63;;;22.31;100.00
11487;BME280;10510;47.942;9.442;2022-07-30T06:58:27;94919.09;;;22.44;100.00
11487;BME280;10510;47.942;9.442;2022-07-30T07:00:28;94914.47;;;22.61;100.00
11487;BME280;10510;47.942;9.442;2022-07-30T07:02:29;94910.28;;;22.65;100.00
11487;BME280;10510;47.942;9.442;2022-07-30T07:04:29;94916.19;;;22.45;100.00
11487;BME280;10510;47.942;9.442;2022-07-30T07:06:31;94915.13;;;22.47;100.00
11487;BME280;10510;47.942;9.442;2022-07-30T07:08:34;94912.66;;;22.40;100.00
11487;BME280;10510;47.942;9.442;2022-07-30T07:10:35;94902.44;;;22.54;100.00
11487;BME280;10510;47.942;9.442;2022-07-30T07:12:36;94926.03;;;22.99;100.00
11487;BME280;10510;47.942;9.442;2022-07-30T07:14:36;94921.66;;;23.20;100.00
11487;BME280;10510;47.942;9.442;2022-07-30T07:16:37;94932.72;;;23.34;100.00
11487;BME280;10510;47.942;9.442;2022-07-30T07:18:37;94927.94;;;23.41;100.00
11487;BME280;10510;47.942;9.442;2022-07-30T07:20:37;94925.41;;;23.56;100.00
11487;BME280;10510;47.942;9.442;2022-07-30T07:22:37;94929.53;;;23.79;100.00
11487;BME280;10510;47.942;9.442;2022-07-30T07:24:38;94922.38;;;23.80;100.00
11487;BME280;10510;47.942;9.442;2022-07-30T07:26:38;94916.81;;;23.49;100.00
11487;BME280;10510;47.942;9.442;2022-07-30T07:28:39;94924.28;;;23.47;100.00
11487;BME280;10510;47.942;9.442;2022-07-30T07:30:42;94925.75;;;23.70;100.00
11487;BME280;10510;47.942;9.442;2022-07-30T07:32:43;94921.03;;;23.83;100.00
11487;BME280;10510;47.942;9.442;2022-07-30T07:34:43;94912.88;;;24.15;100.00
11487;BME280;10510;47.942;9.442;2022-07-30T07:36:43;94922.69;;;24.57;100.00
11487;BME280;10510;47.942;9.442;2022-07-30T07:38:44;94921.09;;;24.66;100.00
11487;BME280;10510;47.942;9.442;2022-07-30T07:40:44;94915.22;;;24.79;100.00
11487;BME280;10510;47.942;9.442;2022-07-30T07:42:45;94922.44;;;24.84;100.00
11487;BME280;10510;47.942;9.442;2022-07-30T07:44:45;94925.38;;;25.03;100.00
11487;BME280;10510;47.942;9.442;2022-07-30T07:46:46;94928.59;;;25.05;100.00
11487;BME280;10510;47.942;9.442;2022-07-30T07:48:46;94927.84;;;25.25;100.00
11487;BME280;10510;47.942;9.442;2022-07-30T07:50:46;94925.94;;;25.41;100.00
11487;BME280;10510;47.942;9.442;2022-07-30T07:52:47;94925.91;;;25.66;100.00
11487;BME280;10510;47.942;9.442;2022-07-30T07:54:47;94924.25;;;25.96;100.00
11487;BME280;10510;47.942;9.442;2022-07-30T07:56:47;94919.88;;;26.20;100.00
11487;BME280;10510;47.942;9.442;2022-07-30T07:58:50;94928.56;;;25.87;100.00
11487;BME280;10510;47.942;9.442;2022-07-30T08:00:53;94925.06;;;25.91;100.00
11487;BME280;10510;47.942;9.442;2022-07-30T08:02:54;94924.81;;;25.88;100.00
11487;BME280;10510;47.942;9.442;2022-07-30T08:04:54;94926.38;;;25.99;100.00
11487;BME280;10510;47.942;9.442;2022-07-30T08:06:54;94921.19;;;26.23;100.00
11487;BME280;10510;47.942;9.442;2022-07-30T08:08:55;94920.84;;;26.45;100.00
11487;BME280;10510;47.942;9.442;2022-07-30T08:10:55;94917.22;;;26.75;100.00
11487;BME280;10510;47.942;9.442;2022-07-30T08:12:55;94924.31;;;26.95;100.00
11487;BME280;10510;47.942;9.442;2022-07-30T08:14:56;94918.44;;;26.93;100.00
11487;BME280;10510;47.942;9.442;2022-07-30T08:16:56;94922.66;;;26.60;100.00
11487;BME280;10510;47.942;9.442;2022-07-30T08:18:56;94921.78;;;26.75;100.00
11487;BME280;10510;47.942;9.442;2022-07-30T08:20:56;94921.25;;;26.72;100.00
11487;BME280;10510;47.942;9.442;2022-07-30T08:22:57;94916.41;;;26.75;100.00
11487;BME280;10510;47.942;9.442;2022-07-30T08:24:57;94917.19;;;26.80;100.00
11487;BME280;10510;47.942;9.442;2022-07-30T08:26:57;94916.97;;;26.71;100.00
11487;BME280;10510;47.942;9.442;2022-07-30T08:28:57;94916.78;;;26.97;100.00
11487;BME280;10510;47.942;9.442;2022-07-30T08:30:58;94920.63;;;27.25;100.00
11487;BME280;10510;47.942;9.442;2022-07-30T08:32:58;94916.06;;;27.26;100.00
11487;BME280;10510;47.942;9.442;2022-07-30T08:34:58;94913.13;;;27.22;100.00
11487;BME280;10510;47.942;9.442;2022-07-30T08:36:59;94915.81;;;27.22;100.00
11487;BME280;10510;47.942;9.442;2022-07-30T08:38:59;94915.81;;;27.22;100.00
11487;BME280;10510;47.942;9.442;2022-07-30T08:41:00;94911.94;;;26.99;100.00
11487;BME280;10510;47.942;9.442;2022-07-30T08:43:03;94916.88;;;26.82;100.00
11487;BME280;10510;47.942;9.442;2022-07-30T08:45:05;94921.50;;;26.21;100.00
11487;BME280;10510;47.942;9.442;2022-07-30T08:47:06;94908.56;;;26.39;100.00
11487;BME280;10510;47.942;9.442;2022-07-30T08:49:08;94904.56;;;26.81;100.00
11487;BME280;10510;47.942;9.442;2022-07-30T08:51:10;94911.59;;;27.11;100.00
11487;BME280;10510;47.942;9.442;2022-07-30T08:53:11;94913.09;;;27.27;100.00
11487;BME280;10510;47.942;9.442;2022-07-30T08:55:12;94913.00;;;27.37;100.00
11487;BME280;10510;47.942;9.442;2022-07-30T08:57:12;94913.69;;;27.53;100.00
11487;BME280;10510;47.942;9.442;2022-07-30T08:59:13;94918.09;;;27.68;100.00
11487;BME280;10510;47.942;9.442;2022-07-30T09:01:13;94919.31;;;27.81;100.00
11487;BME280;10510;47.942;9.442;2022-07-30T09:03:13;94923.41;;;27.44;100.00
11487;BME280;10510;47.942;9.442;2022-07-30T09:05:14;94916.22;;;27.39;100.00
11487;BME280;10510;47.942;9.442;2022-07-30T09:07:14;94921.34;;;27.36;100.00
11487;BME280;10510;47.942;9.442;2022-07-30T09:09:15;94918.75;;;27.55;100.00
11487;BME280;10510;47.942;9.442;2022-07-30T09:11:15;94913.91;;;27.86;100.00
11487;BME280;10510;47.942;9.442;2022-07-30T09:13:36;94919.13;;;28.20;100.00
11487;BME280;10510;47.942;9.442;2022-07-30T09:15:37;94923.56;;;28.54;100.00
11487;BME280;10510;47.942;9.442;2022-07-30T09:20:00;94911.72;;;28.93;100.00
11487;BME280;10510;47.942;9.442;2022-07-30T09:22:01;94915.59;;;29.06;100.00
11487;BME280;10510;47.942;9.442;2022-07-30T09:24:20;94914.44;;;29.45;100.00
11487;BME280;10510;47.942;9.442;2022-07-30T09:26:20;94907.97;;;29.59;100.00
11487;BME280;10510;47.942;9.442;2022-07-30T09:28:29;94916.50;;;29.67;100.00
11487;BME280;10510;47.942;9.442;2022-07-30T09:30:50;94910.22;;;29.38;100.00
11487;BME280;10510;47.942;9.442;2022-07-30T09:32:53;94907.97;;;29.27;100.00
11487;BME280;10510;47.942;9.442;2022-07-30T09:34:53;94908.34;;;29.53;100.00
11487;BME280;10510;47.942;9.442;2022-07-30T09:36:58;94904.31;;;29.69;100.00
11487;BME280;10510;47.942;9.442;2022-07-30T09:38:58;94908.91;;;29.82;100.00
11487;BME280;10510;47.942;9.442;2022-07-30T09:40:59;94908.78;;;29.60;100.00
11487;BME280;10510;47.942;9.442;2022-07-30T09:43:08;94906.16;;;29.55;100.00
11487;BME280;10510;47.942;9.442;2022-07-30T09:45:11;94911.22;;;29.75;100.00
11487;BME280;10510;47.942;9.442;2022-07-30T09:47:32;94911.56;;;29.55;100.00
11487;BME280;10510;47.942;9.442;2022-07-30T09:49:33;94911.50;;;29.41;100.00
11487;BME280;10510;47.942;9.442;2022-07-30T09:51:37;94903.88;;;29.48;100.00
11487;BME280;10510;47.942;9.442;2022-07-30T09:53:57;94906.84;;;29.14;100.00
11487;BME280;10510;47.942;9.442;2022-07-30T09:56:27;94904.66;;;29.49;100.00
11487;BME280;10510;47.942;9.442;2022-07-30T09:58:38;94908.06;;;29.54;100.00
11487;BME280;10510;47.942;9.442;2022-07-30T10:00:39;94907.41;;;29.30;100.00
11487;BME280;10510;47.942;9.442;2022-07-30T10:02:40;94900.28;;;29.20;100.00
11487;BME280;10510;47.942;9.442;2022-07-30T10:04:40;94899.53;;;29.01;100.00
11487;BME280;10510;47.942;9.442;2022-07-30T10:06:41;94895.97;;;28.86;100.00
11487;BME280;10510;47.942;9.442;2022-07-30T10:08:49;94902.50;;;28.42;100.00
11487;BME280;10510;47.942;9.442;2022-07-30T10:10:50;94904.91;;;28.20;100.00
11487;BME280;10510;47.942;9.442;2022-07-30T10:12:53;94900.72;;;28.33;100.00
11487;BME280;10510;47.942;9.442;2022-07-30T10:14:56;94899.81;;;28.61;100.00
11487;BME280;10510;47.942;9.442;2022-07-30T10:16:59;94893.94;;;28.35;100.00
11487;BME280;10510;47.942;9.442;2022-07-30T10:19:00;94898.84;;;28.33;100.00
11487;BME280;10510;47.942;9.442;2022-07-30T10:21:01;94893.78;;;28.07;100.00
11487;BME280;10510;47.942;9.442;2022-07-30T10:23:06;94897.41;;;28.17;100.00
11487;BME280;10510;47.942;9.442;2022-07-30T10:25:07;94896.28;;;27.99;100.00
11487;BME280;10510;47.942;9.442;2022-07-30T10:27:08;94900.63;;;27.42;100.00
11487;BME280;10510;47.942;9.442;2022-07-30T10:29:09;94897.09;;;27.12;100.00
11487;BME280;10510;47.942;9.442;2022-07-30T10:31:10;94886.84;;;26.85;100.00
11487;BME280;10510;47.942;9.442;2022-07-30T10:33:10;94890.66;;;27.13;100.00
11487;BME280;10510;47.942;9.442;2022-07-30T10:35:12;94895.28;;;27.42;100.00
11487;BME280;10510;47.942;9.442;2022-07-30T10:37:13;94892.78;;;27.21;100.00
11487;BME280;10510;47.942;9.442;2022-07-30T10:39:24;94883.44;;;27.08;100.00
11487;BME280;10510;47.942;9.442;2022-07-30T10:41:31;94890.31;;;27.25;100.00